createdAt,value
2024-04-22T00:00:09.773Z,0.93
2024-04-22T00:03:14.515Z,1.48
2024-04-22T00:06:16.551Z,1.80
2024-04-22T00:09:21.238Z,1.63
2024-04-22T00:12:23.299Z,1.48
2024-04-22T00:15:30.562Z,1.30
2024-04-22T00:18:32.699Z,1.20
2024-04-22T00:21:37.297Z,1.52
2024-04-22T00:24:42.015Z,1.63
2024-04-22T00:27:46.589Z,1.50
2024-04-22T00:30:53.884Z,1.60
2024-04-22T00:33:55.922Z,1.40
2024-04-22T00:37:00.490Z,1.70
2024-04-22T00:40:02.490Z,2.10
2024-04-22T00:43:07.481Z,2.13
2024-04-22T00:46:12.346Z,2.10
2024-04-22T00:49:17.557Z,1.88
2024-04-22T00:52:20.209Z,2.00
2024-04-22T00:55:25.276Z,1.60
2024-04-22T00:58:30.857Z,1.90
2024-04-22T01:01:37.402Z,1.47
2024-04-22T01:04:44.768Z,1.40
2024-04-22T01:07:50.307Z,1.60
2024-04-22T01:10:55.199Z,1.42
2024-04-22T01:13:58.374Z,1.65
2024-04-22T01:17:05.977Z,1.47
2024-04-22T01:20:09.851Z,1.20
2024-04-22T01:23:18.773Z,1.65
2024-04-22T01:26:24.426Z,1.00
2024-04-22T01:29:26.716Z,1.33
2024-04-22T01:32:32.521Z,1.40
2024-04-22T01:35:37.489Z,1.33
2024-04-22T01:38:42.481Z,1.27
2024-04-22T01:41:47.410Z,1.60
2024-04-22T01:44:49.768Z,1.45
2024-04-22T01:47:54.473Z,1.35
2024-04-22T01:50:56.481Z,1.42
2024-04-22T01:54:03.757Z,1.60
2024-04-22T01:57:05.830Z,1.70
2024-04-22T02:00:11.776Z,1.58
2024-04-22T02:03:16.389Z,1.48
2024-04-22T02:06:18.475Z,1.50
2024-04-22T02:09:25.654Z,1.60
2024-04-22T02:12:27.693Z,1.40
2024-04-22T02:15:32.402Z,1.27
2024-04-22T02:18:37.237Z,1.70
2024-04-22T02:21:39.259Z,1.63
2024-04-22T02:24:46.457Z,1.40
2024-04-22T02:27:48.475Z,1.63
2024-04-22T02:30:53.088Z,1.55
2024-04-22T02:33:55.068Z,1.42
2024-04-22T02:36:59.698Z,1.63
2024-04-22T02:40:05.229Z,1.50
2024-04-22T02:43:10.042Z,1.30
2024-04-22T02:46:12.093Z,1.20
2024-04-22T02:49:16.702Z,1.65
2024-04-22T02:52:21.389Z,1.38
2024-04-22T02:55:30.395Z,1.37
2024-04-22T02:58:35.184Z,1.40
2024-04-22T03:01:37.458Z,1.58
2024-04-22T03:04:42.251Z,1.92
2024-04-22T03:07:44.271Z,1.83
2024-04-22T03:10:51.611Z,1.67
2024-04-22T03:13:53.617Z,1.43
2024-04-22T03:16:58.377Z,1.40
2024-04-22T03:20:00.412Z,1.50
2024-04-22T03:23:05.120Z,1.40
2024-04-22T03:26:12.436Z,1.60
2024-04-22T03:29:14.703Z,1.73
2024-04-22T03:32:19.482Z,1.33
2024-04-22T03:35:21.450Z,1.40
2024-04-22T03:38:26.198Z,1.52
2024-04-22T03:41:33.583Z,1.80
2024-04-22T03:44:38.118Z,1.63
2024-04-22T03:47:58.819Z,1.60
2024-04-22T03:51:03.411Z,1.92
2024-04-22T03:54:08.446Z,1.70
2024-04-22T03:57:16.077Z,1.73
2024-04-22T04:00:28.166Z,1.80
2024-04-22T04:03:30.428Z,1.77
2024-04-22T04:06:34.952Z,1.67
2024-04-22T04:09:37.764Z,1.65
2024-04-22T04:12:44.933Z,2.13
2024-04-22T04:15:46.967Z,1.87
2024-04-22T04:18:51.735Z,2.40
2024-04-22T04:21:56.548Z,2.00
2024-04-22T04:25:01.088Z,1.90
2024-04-22T04:28:05.904Z,1.98
2024-04-22T04:31:10.759Z,1.83
2024-04-22T04:34:17.291Z,2.00
2024-04-22T04:37:19.371Z,1.80
2024-04-22T04:40:24.438Z,1.90
2024-04-22T04:43:29.882Z,1.52
2024-04-22T04:46:34.469Z,1.60
2024-04-22T04:49:39.226Z,1.63
2024-04-22T04:52:46.918Z,2.17
2024-04-22T04:55:49.688Z,1.90
2024-04-22T04:58:56.933Z,1.90
2024-04-22T05:01:58.999Z,1.83
2024-04-22T05:05:03.582Z,2.00
2024-04-22T05:08:06.276Z,2.20
2024-04-22T05:11:10.937Z,2.20
2024-04-22T05:14:18.241Z,2.92
2024-04-22T05:17:20.306Z,2.97
2024-04-22T05:20:26.563Z,3.30
2024-04-22T05:23:28.610Z,3.20
2024-04-22T05:26:33.216Z,3.38
2024-04-22T05:29:37.870Z,3.30
2024-04-22T05:32:42.761Z,3.23
2024-04-22T05:36:03.181Z,4.20
2024-04-22T05:39:07.793Z,4.40
2024-04-22T05:42:12.319Z,4.40
2024-04-22T05:45:19.741Z,3.83
2024-04-22T05:48:24.385Z,2.70
2024-04-22T05:51:29.149Z,3.10
2024-04-22T05:54:33.884Z,2.20
2024-04-22T05:57:35.889Z,2.38
2024-04-22T06:00:43.221Z,2.22
2024-04-22T06:03:47.809Z,2.27
2024-04-22T06:06:49.982Z,1.93
2024-04-22T06:09:54.464Z,1.80
2024-04-22T06:12:59.058Z,1.60
2024-04-22T06:16:06.754Z,1.58
2024-04-22T06:19:09.502Z,1.80
2024-04-22T06:22:14.284Z,1.97
2024-04-22T06:25:18.519Z,2.00
2024-04-22T06:28:23.956Z,1.65
2024-04-22T06:31:28.821Z,1.67
2024-04-22T06:34:33.623Z,1.90
2024-04-22T06:37:35.652Z,1.67
2024-04-22T06:40:41.091Z,1.88
2024-04-22T06:43:43.313Z,2.30
2024-04-22T06:46:50.720Z,1.90
2024-04-22T06:49:53.151Z,1.93
2024-04-22T06:52:57.939Z,1.77
2024-04-22T06:56:00.043Z,1.77
2024-04-22T06:59:04.793Z,1.50
2024-04-22T07:02:12.718Z,1.50
2024-04-22T07:05:22.268Z,2.17
2024-04-22T07:08:27.275Z,1.40
2024-04-22T07:11:29.195Z,1.52
2024-04-22T07:14:33.940Z,1.52
2024-04-22T07:17:41.163Z,1.65
2024-04-22T07:20:43.240Z,1.67
2024-04-22T07:23:47.901Z,1.50
2024-04-22T07:26:52.422Z,1.80
2024-04-22T07:29:59.863Z,1.42
2024-04-22T07:33:08.001Z,1.50
2024-04-22T07:36:18.643Z,1.47
2024-04-22T07:39:29.288Z,1.73
2024-04-22T07:42:33.992Z,1.42
2024-04-22T07:45:36.070Z,2.13
2024-04-22T07:48:43.210Z,1.75
2024-04-22T07:51:45.255Z,1.93
2024-04-22T07:54:50.357Z,1.73
2024-04-22T07:57:53.620Z,1.60
2024-04-22T08:00:58.645Z,1.30
2024-04-22T08:04:04.331Z,1.70
2024-04-22T08:07:11.889Z,2.00
2024-04-22T08:10:14.184Z,2.10
2024-04-22T08:13:18.904Z,1.85
2024-04-22T08:16:23.517Z,1.50
2024-04-22T08:19:28.928Z,1.65
2024-04-22T08:22:34.123Z,1.70
2024-04-22T08:25:36.353Z,1.90
2024-04-22T08:28:41.209Z,1.63
2024-04-22T08:31:44.269Z,1.35
2024-04-22T08:34:52.138Z,1.70
2024-04-22T08:37:54.334Z,1.83
2024-04-22T08:41:02.099Z,1.60
2024-04-22T08:44:04.478Z,1.70
2024-04-22T08:47:09.731Z,1.55
2024-04-22T08:50:17.061Z,1.40
2024-04-22T08:53:20.525Z,1.50
2024-04-22T08:56:25.968Z,1.70
2024-04-22T08:59:37.336Z,1.63
2024-04-22T09:02:45.092Z,1.60
2024-04-22T09:05:49.830Z,1.60
2024-04-22T09:08:54.815Z,1.50
2024-04-22T09:12:08.492Z,1.40
2024-04-22T09:15:18.693Z,1.90
2024-04-22T09:18:23.822Z,1.48
2024-04-22T09:21:28.612Z,1.30
2024-04-22T09:24:33.474Z,1.70
2024-04-22T09:27:36.776Z,1.73
2024-04-22T09:30:43.387Z,1.42
2024-04-22T09:33:48.934Z,1.67
2024-04-22T09:36:57.432Z,1.48
2024-04-22T09:40:02.068Z,1.40
2024-04-22T09:43:07.228Z,1.60
2024-04-22T09:46:12.464Z,1.52
2024-04-22T09:49:20.830Z,1.90
2024-04-22T09:52:27.452Z,1.38
2024-04-22T09:55:34.487Z,1.17
2024-04-22T09:58:37.733Z,1.33
2024-04-22T10:01:42.643Z,1.63
2024-04-22T10:04:46.257Z,1.50
2024-04-22T10:07:54.416Z,1.20
2024-04-22T10:11:06.879Z,1.57
2024-04-22T10:14:13.095Z,1.40
2024-04-22T10:17:15.354Z,1.70
2024-04-22T10:20:21.225Z,1.70
2024-04-22T10:23:27.091Z,1.80
2024-04-22T10:26:31.745Z,1.20
2024-04-22T10:29:36.453Z,1.23
2024-04-22T10:32:41.165Z,1.73
2024-04-22T10:35:43.102Z,1.58
2024-04-22T10:38:50.402Z,1.67
2024-04-22T10:41:52.447Z,1.77
2024-04-22T10:44:57.777Z,1.50
2024-04-22T10:48:08.645Z,1.90
2024-04-22T10:51:20.300Z,1.52
2024-04-22T10:54:25.198Z,1.73
2024-04-22T10:57:30.083Z,1.80
2024-04-22T11:00:35.456Z,1.90
2024-04-22T11:03:40.209Z,2.28
2024-04-22T11:06:44.879Z,1.90
2024-04-22T11:09:52.195Z,1.85
2024-04-22T11:12:54.364Z,1.60
2024-04-22T11:16:09.082Z,1.50
2024-04-22T11:19:11.079Z,1.67
2024-04-22T11:22:16.064Z,1.35
2024-04-22T11:25:23.410Z,1.88
2024-04-22T11:28:28.621Z,1.90
2024-04-22T11:31:36.229Z,1.58
2024-04-22T11:34:38.352Z,1.88
2024-04-22T11:37:43.924Z,1.50
2024-04-22T11:40:51.597Z,1.85
2024-04-22T11:43:54.575Z,1.50
2024-04-22T11:46:59.368Z,1.45
2024-04-22T11:50:01.517Z,1.60
2024-04-22T11:53:14.590Z,1.20
2024-04-22T11:56:31.257Z,1.17
2024-04-22T11:59:35.914Z,1.13
2024-04-22T12:02:40.535Z,1.45
2024-04-22T12:05:42.648Z,1.30
2024-04-22T12:08:47.243Z,1.50
2024-04-22T12:11:51.988Z,1.20
2024-04-22T12:14:56.665Z,1.40
2024-04-22T12:18:01.356Z,1.10
2024-04-22T12:21:05.749Z,1.30
2024-04-22T12:24:10.793Z,1.10
2024-04-22T12:27:15.528Z,1.20
2024-04-22T12:30:20.351Z,1.20
2024-04-22T12:33:22.788Z,1.33
2024-04-22T12:36:27.487Z,1.40
2024-04-22T12:39:30.399Z,1.08
2024-04-22T12:42:37.830Z,1.23
2024-04-22T12:45:42.355Z,1.10
2024-04-22T12:49:02.728Z,1.20
2024-04-22T12:52:07.852Z,1.50
2024-04-22T12:55:12.895Z,1.40
2024-04-22T12:58:20.513Z,1.10
2024-04-22T13:01:25.385Z,1.30
2024-04-22T13:04:31.371Z,1.30
2024-04-22T13:07:36.383Z,1.55
2024-04-22T13:10:41.315Z,1.30
2024-04-22T13:13:49.095Z,1.40
2024-04-22T13:16:57.208Z,1.40
2024-04-22T13:20:02.103Z,1.00
2024-04-22T13:23:07.117Z,1.67
2024-04-22T13:26:12.215Z,1.50
2024-04-22T13:29:16.842Z,1.10
2024-04-22T13:32:27.160Z,1.52
2024-04-22T13:35:29.207Z,1.17
2024-04-22T13:38:41.577Z,1.33
2024-04-22T13:41:46.466Z,1.10
2024-04-22T13:44:51.227Z,1.27
2024-04-22T13:47:56.371Z,1.30
2024-04-22T13:50:58.943Z,1.30
2024-04-22T13:54:03.841Z,1.27
2024-04-22T13:57:06.164Z,1.20
2024-04-22T14:00:15.091Z,1.17
2024-04-22T14:03:17.395Z,1.52
2024-04-22T14:06:22.463Z,1.45
2024-04-22T14:09:26.998Z,1.30
2024-04-22T14:12:29.143Z,1.10
2024-04-22T14:15:45.065Z,1.10
2024-04-22T14:18:50.134Z,1.30
2024-04-22T14:21:55.904Z,1.73
2024-04-22T14:25:00.488Z,1.27
2024-04-22T14:28:02.646Z,1.20
2024-04-22T14:31:09.930Z,1.75
2024-04-22T14:34:12.638Z,1.20
2024-04-22T14:37:34.564Z,1.50
2024-04-22T14:40:36.809Z,1.52
2024-04-22T14:43:41.588Z,1.20
2024-04-22T14:46:46.130Z,1.40
2024-04-22T14:49:50.947Z,1.20
2024-04-22T14:52:53.053Z,1.10
2024-04-22T14:55:57.909Z,1.40
2024-04-22T14:59:04.654Z,1.23
2024-04-22T15:02:12.261Z,1.60
2024-04-22T15:05:17.360Z,1.20
2024-04-22T15:08:19.486Z,1.20
2024-04-22T15:11:25.556Z,1.35
2024-04-22T15:14:27.642Z,1.40
2024-04-22T15:17:35.052Z,0.95
2024-04-22T15:20:37.472Z,1.20
2024-04-22T15:23:42.977Z,0.90
2024-04-22T15:26:47.761Z,0.98
2024-04-22T15:29:52.430Z,1.10
2024-04-22T15:32:59.720Z,1.02
2024-04-22T15:36:04.483Z,1.15
2024-04-22T15:39:11.366Z,1.10
2024-04-22T15:42:13.552Z,1.05
2024-04-22T15:45:18.432Z,1.30
2024-04-22T15:48:23.440Z,1.15
2024-04-22T15:51:28.450Z,1.30
2024-04-22T15:54:34.208Z,1.10
2024-04-22T15:57:36.809Z,0.90
2024-04-22T16:00:41.399Z,1.10
2024-04-22T16:03:48.620Z,0.98
2024-04-22T16:06:53.152Z,1.40
2024-04-22T16:09:55.443Z,1.17
2024-04-22T16:13:00.443Z,1.02
2024-04-22T16:16:02.951Z,1.40
2024-04-22T16:19:11.245Z,1.38
2024-04-22T16:22:13.590Z,1.40
2024-04-22T16:25:18.644Z,0.95
2024-04-22T16:28:23.623Z,1.63
2024-04-22T16:31:30.206Z,1.27
2024-04-22T16:34:36.021Z,1.58
2024-04-22T16:37:43.783Z,1.10
2024-04-22T16:40:46.092Z,1.38
2024-04-22T16:43:51.418Z,2.03
2024-04-22T16:46:56.177Z,1.88
2024-04-22T16:50:01.424Z,1.90
2024-04-22T16:53:06.999Z,1.80
2024-04-22T16:56:09.301Z,1.80
2024-04-22T16:59:14.657Z,1.73
2024-04-22T17:02:19.635Z,1.70
2024-04-22T17:05:25.033Z,2.00
2024-04-22T17:08:29.918Z,2.00
2024-04-22T17:11:34.962Z,2.00
2024-04-22T17:14:37.295Z,2.60
2024-04-22T17:17:42.457Z,2.10
2024-04-22T17:20:53.812Z,2.50
2024-04-22T17:23:59.302Z,2.30
2024-04-22T17:27:01.590Z,2.60
2024-04-22T17:30:07.032Z,2.58
2024-04-22T17:33:09.372Z,2.20
2024-04-22T17:36:17.038Z,2.40
2024-04-22T17:39:19.186Z,2.37
2024-04-22T17:42:24.572Z,2.17
2024-04-22T17:45:26.687Z,2.50
2024-04-22T17:48:31.523Z,2.42
2024-04-22T17:51:38.684Z,2.40
2024-04-22T17:54:40.725Z,2.60
2024-04-22T17:57:45.226Z,2.58
2024-04-22T18:00:47.904Z,2.60
2024-04-22T18:03:52.600Z,2.60
2024-04-22T18:06:57.639Z,3.15
2024-04-22T18:10:02.257Z,2.83
2024-04-22T18:13:04.977Z,2.88
2024-04-22T18:16:10.117Z,3.08
2024-04-22T18:19:12.183Z,3.00
2024-04-22T18:22:21.914Z,2.60
2024-04-22T18:25:30.628Z,3.00
2024-04-22T18:28:38.332Z,3.47
2024-04-22T18:31:41.143Z,3.75
2024-04-22T18:34:45.668Z,3.10
2024-04-22T18:37:50.402Z,3.03
2024-04-22T18:40:55.319Z,2.60
2024-04-22T18:44:00.309Z,2.38
2024-04-22T18:47:05.081Z,3.05
2024-04-22T18:50:10.098Z,2.83
2024-04-22T18:53:14.769Z,2.80
2024-04-22T18:56:19.348Z,2.70
2024-04-22T19:02:46.556Z,4.15
2024-04-22T19:05:51.573Z,4.30
2024-04-22T19:08:56.311Z,4.40
2024-04-22T19:12:00.987Z,4.55
2024-04-22T19:15:02.924Z,4.53
2024-04-22T19:18:07.898Z,4.43
2024-04-22T19:21:12.442Z,4.13
2024-04-22T19:24:17.160Z,4.90
2024-04-22T19:27:22.971Z,4.78
2024-04-22T19:30:24.886Z,4.25
2024-04-22T19:33:29.508Z,4.28
2024-04-22T19:36:31.611Z,4.10
2024-04-22T19:39:39.135Z,3.60
2024-04-22T19:42:41.054Z,5.18
2024-04-22T19:45:45.564Z,5.47
2024-04-22T19:48:47.631Z,4.93
2024-04-22T19:51:52.298Z,3.97
2024-04-22T19:54:57.634Z,4.00
2024-04-22T19:58:02.423Z,3.63
2024-04-22T20:01:04.735Z,3.75
2024-04-22T20:04:09.562Z,4.10
2024-04-22T20:07:11.543Z,3.97
2024-04-22T20:10:18.951Z,3.72
2024-04-22T20:13:21.320Z,4.00
2024-04-22T20:16:46.942Z,3.75
2024-04-22T20:19:51.599Z,4.07
2024-04-22T20:22:53.705Z,3.67
2024-04-22T20:26:01.593Z,4.15
2024-04-22T20:29:06.320Z,4.25
2024-04-22T20:32:08.424Z,3.97
2024-04-22T20:35:13.307Z,4.18
2024-04-22T20:38:15.180Z,4.13
2024-04-22T20:41:22.510Z,4.10
2024-04-22T20:44:24.387Z,4.28
2024-04-22T20:47:29.249Z,3.80
2024-04-22T20:50:31.194Z,4.20
2024-04-22T20:53:36.955Z,3.90
2024-04-22T20:56:44.059Z,4.20
2024-04-22T20:59:46.067Z,4.38
2024-04-22T21:02:50.943Z,4.25
2024-04-22T21:05:59.277Z,4.53
2024-04-22T21:09:01.395Z,4.33
2024-04-22T21:12:10.224Z,4.40
2024-04-22T21:15:14.846Z,4.80
2024-04-22T21:18:20.851Z,4.60
2024-04-22T21:21:25.717Z,5.43
2024-04-22T21:24:30.677Z,6.50
2024-04-22T21:27:38.136Z,6.82
2024-04-22T21:30:42.789Z,7.13
2024-04-22T21:34:04.116Z,6.40
2024-04-22T21:37:12.237Z,6.03
2024-04-22T21:40:14.387Z,5.23
2024-04-22T21:43:21.848Z,5.82
2024-04-22T21:46:24.131Z,5.60
2024-04-22T21:49:28.794Z,5.90
2024-04-22T21:52:31.177Z,5.20
2024-04-22T21:56:09.784Z,5.33
2024-04-22T21:59:52.244Z,5.47
2024-04-22T22:03:31.865Z,5.68
2024-04-22T22:07:13.615Z,5.25
2024-04-22T22:10:20.758Z,5.32
2024-04-22T22:13:25.354Z,5.47
2024-04-22T22:16:27.357Z,5.68
2024-04-22T22:19:32.744Z,5.28
2024-04-22T22:22:37.414Z,5.60
2024-04-22T22:25:42.238Z,5.63
2024-04-22T22:28:46.854Z,5.50
2024-04-22T22:31:49.100Z,5.28
2024-04-22T22:34:54.063Z,5.20
2024-04-22T22:37:56.209Z,5.43
2024-04-22T22:41:03.421Z,5.03
2024-04-22T22:44:08.312Z,4.88
2024-04-22T22:47:10.382Z,5.20
2024-04-22T22:50:15.445Z,5.18
2024-04-22T22:53:17.644Z,5.43
2024-04-22T22:56:24.947Z,5.57
2024-04-22T22:59:27.788Z,4.80
2024-04-22T23:02:32.554Z,5.00
2024-04-22T23:05:37.296Z,5.30
2024-04-22T23:08:39.389Z,4.95
2024-04-22T23:11:46.859Z,4.53
2024-04-22T23:14:48.982Z,4.47
2024-04-22T23:17:53.624Z,4.22
2024-04-22T23:20:55.691Z,4.65
2024-04-22T23:24:00.234Z,4.53
2024-04-22T23:27:07.518Z,4.10
2024-04-22T23:30:10.434Z,4.65
2024-04-22T23:33:15.263Z,4.72
2024-04-22T23:36:17.465Z,4.70
2024-04-22T23:39:22.105Z,4.50
2024-04-22T23:42:26.633Z,4.40
2024-04-22T23:45:33.177Z,4.47
2024-04-22T23:48:35.199Z,4.28
2024-04-22T23:51:39.884Z,4.20
2024-04-22T23:54:41.873Z,4.80
2024-04-22T23:57:49.234Z,4.30
